Time,TemperatureF,DewpointF,PressureIn,WindDirection,WindDirectionDegrees,WindSpeedMPH,WindSpeedGustMPH,Humidity,HourlyPrecipIn,Conditions,Clouds,dailyrainin,SoftwareType,DateUTC
2013-05-14 00:00:00,53.4,37.7,29.88,NE,55,0.0,3.0,55,0.00,,SKC,0.00,VWS V14.00,2013-05-14 06:00:00,
2013-05-14 00:05:00,53.0,37.3,29.88,NE,55,0.0,3.0,55,0.00,,SKC,0.00,VWS V14.00,2013-05-14 06:05:00,
2013-05-14 00:10:00,52.4,36.7,29.88,NE,55,0.0,4.0,55,0.00,,SKC,0.00,VWS V14.00,2013-05-14 06:10:00,
2013-05-14 00:15:00,52.2,37.0,29.88,NE,55,0.0,4.0,56,0.00,,SKC,0.00,VWS V14.00,2013-05-14 06:15:00,
2013-05-14 00:20:00,52.0,37.2,29.88,NE,55,1.0,4.0,57,0.00,,SKC,0.00,VWS V14.00,2013-05-14 06:20:00,
2013-05-14 00:26:00,52.1,37.3,29.88,ENE,65,0.0,4.0,57,0.00,,SKC,0.00,VWS V14.00,2013-05-14 06:26:00,
2013-05-14 00:31:00,52.1,37.8,29.88,ENE,65,0.0,4.0,58,0.00,,SKC,0.00,VWS V14.00,2013-05-14 06:31:00,
2013-05-14 00:36:00,51.8,37.1,29.88,ENE,65,0.0,0.0,57,0.00,,SKC,0.00,VWS V14.00,2013-05-14 06:36:00,
2013-05-14 00:41:00,51.5,37.2,29.88,ENE,65,0.0,0.0,58,0.00,,SKC,0.00,VWS V14.00,2013-05-14 06:41:00,
2013-05-14 00:46:00,51.2,37.0,29.88,ENE,65,0.0,2.0,58,0.00,,SKC,0.00,VWS V14.00,2013-05-14 06:46:00,
2013-05-14 00:52:00,50.9,36.7,29.88,ENE,65,0.0,2.0,58,0.00,,SKC,0.00,VWS V14.00,2013-05-14 06:52:00,
2013-05-14 00:57:00,50.8,36.6,29.88,ENE,65,0.0,2.0,58,0.00,,SKC,0.00,VWS V14.00,2013-05-14 06:57:00,
2013-05-14 01:02:00,50.9,37.1,29.87,ENE,65,0.0,3.0,59,0.00,,SKC,0.00,VWS V14.00,2013-05-14 07:02:00,
2013-05-14 01:07:00,51.0,37.2,29.88,ENE,65,0.0,1.0,59,0.00,,SKC,0.00,VWS V14.00,2013-05-14 07:07:00,
2013-05-14 01:12:00,51.0,37.6,29.87,ENE,65,0.0,3.0,60,0.00,,SKC,0.00,VWS V14.00,2013-05-14 07:12:00,
2013-05-14 01:18:00,50.6,36.8,29.87,ENE,65,0.0,3.0,59,0.00,,SKC,0.00,VWS V14.00,2013-05-14 07:18:00,
2013-05-14 01:23:00,50.2,36.9,29.87,NNW,338,0.0,5.0,60,0.00,,SKC,0.00,VWS V14.00,2013-05-14 07:23:00,
2013-05-14 01:28:00,49.8,36.9,29.87,NNW,338,0.0,5.0,61,0.00,,SKC,0.00,VWS V14.00,2013-05-14 07:28:00,
2013-05-14 01:33:00,49.5,36.6,29.87,NNW,338,1.0,2.0,61,0.00,,SKC,0.00,VWS V14.00,2013-05-14 07:33:00,
2013-05-14 01:38:00,49.4,36.5,29.87,NNW,338,0.0,2.0,61,0.00,,SKC,0.00,VWS V14.00,2013-05-14 07:38:00,
2013-05-14 01:44:00,49.4,37.3,29.87,NNW,338,1.0,2.0,63,0.00,,SKC,0.00,VWS V14.00,2013-05-14 07:44:00,
2013-05-14 01:49:00,49.3,36.4,29.87,NNW,339,2.0,4.0,61,0.00,,SKC,0.00,VWS V14.00,2013-05-14 07:49:00,
2013-05-14 01:54:00,49.5,35.8,29.87,North,350,1.0,4.0,59,0.00,,SKC,0.00,VWS V14.00,2013-05-14 07:54:00,
2013-05-14 01:59:00,49.4,37.3,29.87,North,355,0.0,4.0,63,0.00,,SKC,0.00,VWS V14.00,2013-05-14 07:59:00,
2013-05-14 02:04:00,49.0,37.0,29.87,North,355,0.0,4.0,63,0.00,,SKC,0.00,VWS V14.00,2013-05-14 08:04:00,
2013-05-14 02:10:00,48.5,36.5,29.87,North,355,1.0,5.0,63,0.00,,SKC,0.00,VWS V14.00,2013-05-14 08:10:00,
2013-05-14 02:15:00,48.2,36.6,29.87,North,355,0.0,5.0,64,0.00,,SKC,0.00,VWS V14.00,2013-05-14 08:15:00,
2013-05-14 02:20:00,47.9,36.7,29.87,North,5,0.0,5.0,65,0.00,,SKC,0.00,VWS V14.00,2013-05-14 08:20:00,
2013-05-14 02:25:00,47.5,36.7,29.86,North,5,2.0,5.0,66,0.00,,SKC,0.00,VWS V14.00,2013-05-14 08:25:00,
2013-05-14 02:30:00,47.3,36.5,29.87,North,5,0.0,5.0,66,0.00,,SKC,0.00,VWS V14.00,2013-05-14 08:30:00,
2013-05-14 02:36:00,46.9,36.2,29.86,North,5,0.0,2.0,66,0.00,,SKC,0.00,VWS V14.00,2013-05-14 08:36:00,
2013-05-14 02:41:00,46.8,36.0,29.86,North,5,0.0,2.0,66,0.00,,SKC,0.00,VWS V14.00,2013-05-14 08:41:00,
2013-05-14 02:46:00,46.8,36.4,29.86,North,5,2.0,2.0,67,0.00,,SKC,0.00,VWS V14.00,2013-05-14 08:46:00,
2013-05-14 02:51:00,46.9,36.5,29.86,North,5,0.0,2.0,67,0.00,,SKC,0.00,VWS V14.00,2013-05-14 08:51:00,
2013-05-14 02:56:00,47.0,36.2,29.86,North,5,0.0,2.0,66,0.00,,SKC,0.00,VWS V14.00,2013-05-14 08:56:00,
2013-05-14 03:02:00,47.0,36.6,29.86,North,5,0.0,2.0,67,0.00,,SKC,0.00,VWS V14.00,2013-05-14 09:02:00,
2013-05-14 03:07:00,46.9,36.2,29.86,North,5,0.0,1.0,66,0.00,,SKC,0.00,VWS V14.00,2013-05-14 09:07:00,
2013-05-14 03:12:00,47.0,36.6,29.86,North,5,0.0,3.0,67,0.00,,SKC,0.00,VWS V14.00,2013-05-14 09:12:00,
2013-05-14 03:17:00,46.8,36.8,29.86,North,5,1.0,3.0,68,0.00,,SKC,0.00,VWS V14.00,2013-05-14 09:17:00,
2013-05-14 03:22:00,46.7,36.3,29.86,North,5,0.0,3.0,67,0.00,,SKC,0.00,VWS V14.00,2013-05-14 09:22:00,
2013-05-14 03:28:00,46.6,36.2,29.86,North,5,2.0,3.0,67,0.00,,SKC,0.00,VWS V14.00,2013-05-14 09:28:00,
2013-05-14 03:33:00,46.4,36.4,29.86,North,5,0.0,1.0,68,0.00,,SKC,0.00,VWS V14.00,2013-05-14 09:33:00,
2013-05-14 03:38:00,46.1,36.1,29.86,North,5,0.0,1.0,68,0.00,,SKC,0.00,VWS V14.00,2013-05-14 09:38:00,
2013-05-14 03:44:00,46.0,36.4,29.86,North,5,0.0,1.0,69,0.00,,SKC,0.00,VWS V14.00,2013-05-14 09:44:00,
2013-05-14 03:49:00,45.9,36.7,29.86,North,5,0.0,2.0,70,0.00,,SKC,0.00,VWS V14.00,2013-05-14 09:49:00,
2013-05-14 03:54:00,45.7,36.5,29.86,North,5,0.0,2.0,70,0.00,,SKC,0.00,VWS V14.00,2013-05-14 09:54:00,
2013-05-14 03:59:00,45.4,36.2,29.86,North,5,0.0,4.0,70,0.00,,SKC,0.00,VWS V14.00,2013-05-14 09:59:00,
2013-05-14 04:04:00,45.0,36.2,29.87,North,5,1.0,1.0,71,0.00,,SKC,0.00,VWS V14.00,2013-05-14 10:04:00,
2013-05-14 04:10:00,44.7,35.9,29.86,North,5,0.0,2.0,71,0.00,,SKC,0.00,VWS V14.00,2013-05-14 10:10:00,
2013-05-14 04:15:00,44.7,36.2,29.87,North,5,0.0,3.0,72,0.00,,SKC,0.00,VWS V14.00,2013-05-14 10:15:00,
2013-05-14 04:20:00,44.5,36.0,29.86,North,5,0.0,3.0,72,0.00,,SKC,0.00,VWS V14.00,2013-05-14 10:20:00,
2013-05-14 04:25:00,44.6,36.2,29.86,North,5,0.0,4.0,72,0.00,,SKC,0.00,VWS V14.00,2013-05-14 10:25:00,
2013-05-14 04:30:00,44.6,36.2,29.86,North,5,0.0,4.0,72,0.00,,SKC,0.00,VWS V14.00,2013-05-14 10:30:00,
2013-05-14 04:36:00,44.6,36.2,29.86,North,5,0.0,2.0,72,0.00,,SKC,0.00,VWS V14.00,2013-05-14 10:36:00,
2013-05-14 04:41:00,44.5,36.0,29.86,North,5,2.0,3.0,72,0.00,,SKC,0.00,VWS V14.00,2013-05-14 10:41:00,
2013-05-14 04:46:00,44.3,36.2,29.86,North,5,0.0,3.0,73,0.00,,SKC,0.00,VWS V14.00,2013-05-14 10:46:00,
2013-05-14 04:51:00,44.1,36.0,29.86,North,5,0.0,3.0,73,0.00,,SKC,0.00,VWS V14.00,2013-05-14 10:51:00,
2013-05-14 04:57:00,44.1,36.0,29.86,North,5,0.0,3.0,73,0.00,,SKC,0.00,VWS V14.00,2013-05-14 10:57:00,
2013-05-14 05:02:00,44.1,35.7,29.86,North,5,0.0,3.0,72,0.00,,SKC,0.00,VWS V14.00,2013-05-14 11:02:00,
2013-05-14 05:07:00,44.0,36.3,29.86,North,5,0.0,3.0,74,0.00,,SKC,0.00,VWS V14.00,2013-05-14 11:07:00,
2013-05-14 05:12:00,43.8,35.7,29.86,North,5,0.0,3.0,73,0.00,,SKC,0.00,VWS V14.00,2013-05-14 11:12:00,
2013-05-14 05:18:00,43.5,36.1,29.86,North,5,1.0,3.0,75,0.00,,SKC,0.00,VWS V14.00,2013-05-14 11:18:00,
2013-05-14 05:23:00,43.4,35.7,29.86,North,5,0.0,3.0,74,0.00,,SKC,0.00,VWS V14.00,2013-05-14 11:23:00,
2013-05-14 05:28:00,43.3,35.9,29.87,North,5,0.0,3.0,75,0.00,,SKC,0.00,VWS V14.00,2013-05-14 11:28:00,
2013-05-14 05:34:00,43.1,35.7,29.87,North,5,0.0,0.0,75,0.00,,SKC,0.00,VWS V14.00,2013-05-14 11:34:00,
2013-05-14 05:39:00,43.1,36.1,29.87,North,5,0.0,2.0,76,0.00,,SKC,0.00,VWS V14.00,2013-05-14 11:39:00,
2013-05-14 05:44:00,43.1,35.7,29.86,North,5,1.0,2.0,75,0.00,,SKC,0.00,VWS V14.00,2013-05-14 11:44:00,
2013-05-14 05:49:00,43.0,35.6,29.87,North,5,2.0,4.0,75,0.00,,SKC,0.00,VWS V14.00,2013-05-14 11:49:00,
2013-05-14 05:54:00,42.9,35.9,29.86,North,5,2.0,4.0,76,0.00,,SKC,0.00,VWS V14.00,2013-05-14 11:54:00,
2013-05-14 06:00:00,42.7,35.7,29.87,North,5,0.0,4.0,76,0.00,,SKC,0.00,VWS V14.00,2013-05-14 12:00:00,
2013-05-14 06:05:00,42.6,35.6,29.87,North,5,0.0,4.0,76,0.00,,SKC,0.00,VWS V14.00,2013-05-14 12:05:00,
2013-05-14 06:10:00,42.8,35.8,29.87,North,5,0.0,4.0,76,0.00,,SKC,0.00,VWS V14.00,2013-05-14 12:10:00,
2013-05-14 06:15:00,42.7,35.7,29.87,North,5,0.0,4.0,76,0.00,,SKC,0.00,VWS V14.00,2013-05-14 12:15:00,
2013-05-14 06:20:00,43.1,36.4,29.87,North,5,0.0,4.0,77,0.00,,SKC,0.00,VWS V14.00,2013-05-14 12:20:00,
2013-05-14 06:26:00,43.1,35.7,29.87,North,5,0.0,4.0,75,0.00,,SKC,0.00,VWS V14.00,2013-05-14 12:26:00,
2013-05-14 06:31:00,43.1,35.7,29.88,North,5,0.0,4.0,75,0.00,,SKC,0.00,VWS V14.00,2013-05-14 12:31:00,
2013-05-14 06:36:00,42.9,35.9,29.88,North,5,0.0,0.0,76,0.00,,SKC,0.00,VWS V14.00,2013-05-14 12:36:00,
2013-05-14 06:41:00,42.8,36.1,29.88,North,5,0.0,0.0,77,0.00,,SKC,0.00,VWS V14.00,2013-05-14 12:41:00,
2013-05-14 06:47:00,42.7,36.0,29.88,North,5,0.0,0.0,77,0.00,,SKC,0.00,VWS V14.00,2013-05-14 12:47:00,
2013-05-14 06:52:00,42.9,36.2,29.88,North,5,0.0,2.0,77,0.00,,SKC,0.00,VWS V14.00,2013-05-14 12:52:00,
2013-05-14 06:57:00,42.8,36.1,29.88,North,5,0.0,2.0,77,0.00,,SKC,0.00,VWS V14.00,2013-05-14 12:57:00,
2013-05-14 07:02:00,42.6,36.2,29.88,North,5,0.0,0.0,78,0.00,,SKC,0.00,VWS V14.00,2013-05-14 13:02:00,
2013-05-14 07:08:00,42.8,36.4,29.88,North,5,0.0,3.0,78,0.00,,SKC,0.00,VWS V14.00,2013-05-14 13:08:00,
2013-05-14 07:13:00,43.5,37.1,29.88,North,5,0.0,3.0,78,0.00,,SKC,0.00,VWS V14.00,2013-05-14 13:13:00,
2013-05-14 07:18:00,43.9,36.8,29.87,North,5,0.0,3.0,76,0.00,,SKC,0.00,VWS V14.00,2013-05-14 13:18:00,
2013-05-14 07:23:00,44.2,37.5,29.87,North,5,0.0,3.0,77,0.00,,SKC,0.00,VWS V14.00,2013-05-14 13:23:00,
2013-05-14 07:28:00,44.7,38.6,29.88,North,5,0.0,3.0,79,0.00,,SKC,0.00,VWS V14.00,2013-05-14 13:28:00,
2013-05-14 07:34:00,45.0,38.2,29.87,North,5,0.0,0.0,77,0.00,,SKC,0.00,VWS V14.00,2013-05-14 13:34:00,
2013-05-14 07:39:00,45.1,38.0,29.87,North,360,0.0,0.0,76,0.00,,SKC,0.00,VWS V14.00,2013-05-14 13:39:00,
2013-05-14 07:44:00,45.4,38.3,29.87,North,360,0.0,0.0,76,0.00,,SKC,0.00,VWS V14.00,2013-05-14 13:44:00,
2013-05-14 07:49:00,46.0,37.5,29.87,North,360,2.0,2.0,72,0.00,,SKC,0.00,VWS V14.00,2013-05-14 13:49:00,
2013-05-14 07:55:00,46.8,37.9,29.87,North,360,0.0,2.0,71,0.00,,SKC,0.00,VWS V14.00,2013-05-14 13:55:00,
2013-05-14 08:00:00,47.4,38.1,29.86,North,360,0.0,2.0,70,0.00,,SKC,0.00,VWS V14.00,2013-05-14 14:00:00,
2013-05-14 08:05:00,48.4,37.6,29.87,North,360,0.0,2.0,66,0.00,,SKC,0.00,VWS V14.00,2013-05-14 14:05:00,
2013-05-14 08:10:00,49.6,37.1,29.87,ESE,120,1.0,4.0,62,0.00,,SKC,0.00,VWS V14.00,2013-05-14 14:10:00,
2013-05-14 08:16:00,51.3,37.0,29.87,SE,132,2.0,4.0,58,0.00,,SKC,0.00,VWS V14.00,2013-05-14 14:16:00,
2013-05-14 08:21:00,52.7,37.0,29.87,SSE,158,0.0,4.0,55,0.00,,SKC,0.00,VWS V14.00,2013-05-14 14:21:00,
2013-05-14 08:26:00,53.8,37.6,29.87,SSE,158,0.0,4.0,54,0.00,,SKC,0.00,VWS V14.00,2013-05-14 14:26:00,
2013-05-14 08:31:00,55.1,37.8,29.87,SSE,158,0.0,4.0,52,0.00,,SKC,0.00,VWS V14.00,2013-05-14 14:31:00,
2013-05-14 08:36:00,56.6,38.2,29.86,SSE,163,0.0,0.0,50,0.00,,SKC,0.00,VWS V14.00,2013-05-14 14:36:00,
2013-05-14 08:42:00,58.2,37.5,29.86,SSE,164,0.0,0.0,46,0.00,,SKC,0.00,VWS V14.00,2013-05-14 14:42:00,
2013-05-14 08:47:00,59.6,37.1,29.86,South,169,0.0,0.0,43,0.00,,SKC,0.00,VWS V14.00,2013-05-14 14:47:00,
2013-05-14 08:52:00,60.8,37.6,29.85,South,169,0.0,0.0,42,0.00,,SKC,0.00,VWS V14.00,2013-05-14 14:52:00,
2013-05-14 08:57:00,61.8,37.2,29.85,South,180,0.0,0.0,40,0.00,,SKC,0.00,VWS V14.00,2013-05-14 14:57:00,
2013-05-14 09:03:00,62.7,37.4,29.85,South,184,0.0,0.0,39,0.00,,SKC,0.00,VWS V14.00,2013-05-14 15:03:00,
2013-05-14 09:08:00,63.3,38.0,29.85,South,175,0.0,0.0,39,0.00,,SKC,0.00,VWS V14.00,2013-05-14 15:08:00,
2013-05-14 09:13:00,63.6,38.2,29.85,South,176,0.0,0.0,39,0.00,,SKC,0.00,VWS V14.00,2013-05-14 15:13:00,
2013-05-14 09:18:00,64.0,38.6,29.85,South,177,0.0,0.0,39,0.00,,SKC,0.00,VWS V14.00,2013-05-14 15:18:00,
2013-05-14 09:24:00,64.3,38.2,29.84,South,184,0.0,1.0,38,0.00,,SKC,0.00,VWS V14.00,2013-05-14 15:24:00,
2013-05-14 09:29:00,64.4,37.6,29.84,South,184,0.0,1.0,37,0.00,,SKC,0.00,VWS V14.00,2013-05-14 15:29:00,
2013-05-14 09:34:00,64.8,37.9,29.83,South,184,0.0,1.0,37,0.00,,SKC,0.00,VWS V14.00,2013-05-14 15:34:00,
2013-05-14 09:39:00,65.0,38.8,29.83,South,184,0.0,2.0,38,0.00,,SKC,0.00,VWS V14.00,2013-05-14 15:39:00,
2013-05-14 09:44:00,65.3,39.1,29.83,South,184,0.0,2.0,38,0.00,,SKC,0.00,VWS V14.00,2013-05-14 15:44:00,
2013-05-14 09:50:00,65.7,40.7,29.83,South,184,3.0,4.0,40,0.00,,SKC,0.00,VWS V14.00,2013-05-14 15:50:00,
2013-05-14 09:55:00,65.9,41.6,29.82,South,184,0.0,4.0,41,0.00,,SKC,0.00,VWS V14.00,2013-05-14 15:55:00,
2013-05-14 10:00:00,66.5,40.1,29.82,South,184,0.0,4.0,38,0.00,,SKC,0.00,VWS V14.00,2013-05-14 16:00:00,
2013-05-14 10:05:00,67.1,39.3,29.82,South,186,0.0,2.0,36,0.00,,SKC,0.00,VWS V14.00,2013-05-14 16:05:00,
2013-05-14 10:11:00,67.6,41.1,29.82,South,186,1.0,3.0,38,0.00,,SKC,0.00,VWS V14.00,2013-05-14 16:11:00,
2013-05-14 10:16:00,68.1,40.2,29.81,South,191,2.0,4.0,36,0.00,,SKC,0.00,VWS V14.00,2013-05-14 16:16:00,
2013-05-14 10:21:00,68.4,39.7,29.82,SW,219,0.0,5.0,35,0.00,,SKC,0.00,VWS V14.00,2013-05-14 16:21:00,
2013-05-14 10:26:00,68.6,41.3,29.80,SSW,202,2.0,5.0,37,0.00,,SKC,0.00,VWS V14.00,2013-05-14 16:26:00,
2013-05-14 10:31:00,69.3,40.5,29.80,SSW,200,2.0,5.0,35,0.00,,SKC,0.00,VWS V14.00,2013-05-14 16:31:00,
2013-05-14 10:37:00,69.7,40.1,29.80,SSW,206,0.0,4.0,34,0.00,,SKC,0.00,VWS V14.00,2013-05-14 16:37:00,
2013-05-14 10:42:00,70.1,41.2,29.80,SSW,195,2.0,4.0,35,0.00,,SKC,0.00,VWS V14.00,2013-05-14 16:42:00,
2013-05-14 10:47:00,70.6,41.7,29.79,South,173,2.0,5.0,35,0.00,,SKC,0.00,VWS V14.00,2013-05-14 16:47:00,
2013-05-14 10:52:00,70.9,41.2,29.79,South,183,2.0,5.0,34,0.00,,SKC,0.00,VWS V14.00,2013-05-14 16:52:00,
2013-05-14 10:58:00,71.4,43.1,29.79,SW,221,2.0,5.0,36,0.00,,SKC,0.00,VWS V14.00,2013-05-14 16:58:00,
2013-05-14 11:03:00,72.2,40.7,29.78,SSW,202,5.0,6.0,32,0.00,,SKC,0.00,VWS V14.00,2013-05-14 17:03:00,
2013-05-14 11:08:00,72.5,42.6,29.79,South,186,1.0,6.0,34,0.00,,SKC,0.00,VWS V14.00,2013-05-14 17:08:00,
2013-05-14 11:13:00,73.0,42.2,29.78,SSW,208,2.0,6.0,33,0.00,,SKC,0.00,VWS V14.00,2013-05-14 17:13:00,
2013-05-14 11:18:00,73.4,40.1,29.78,SSW,211,2.0,6.0,30,0.00,,SKC,0.00,VWS V14.00,2013-05-14 17:18:00,
2013-05-14 11:24:00,73.6,38.5,29.78,SSW,197,0.0,6.0,28,0.00,,SKC,0.00,VWS V14.00,2013-05-14 17:24:00,
2013-05-14 11:29:00,74.0,39.8,29.78,SSW,198,2.0,6.0,29,0.00,,SKC,0.00,VWS V14.00,2013-05-14 17:29:00,
2013-05-14 11:34:00,74.5,37.4,29.77,SSW,206,3.0,5.0,26,0.00,,SKC,0.00,VWS V14.00,2013-05-14 17:34:00,
2013-05-14 11:39:00,75.1,37.9,29.77,SSW,211,0.0,5.0,26,0.00,,SKC,0.00,VWS V14.00,2013-05-14 17:39:00,
2013-05-14 11:45:00,76.0,37.7,29.77,SSE,162,0.0,5.0,25,0.00,,SKC,0.00,VWS V14.00,2013-05-14 17:45:00,
2013-05-14 11:50:00,76.2,37.8,29.77,South,178,6.0,7.0,25,0.00,,SKC,0.00,VWS V14.00,2013-05-14 17:50:00,
2013-05-14 11:55:00,76.2,38.8,29.76,SW,225,0.0,7.0,26,0.00,,SKC,0.00,VWS V14.00,2013-05-14 17:55:00,
2013-05-14 12:00:00,76.5,40.1,29.76,WSW,239,2.0,7.0,27,0.00,,SKC,0.00,VWS V14.00,2013-05-14 18:00:00,
2013-05-14 12:05:00,76.8,37.3,29.75,SW,228,2.0,3.0,24,0.00,,SKC,0.00,VWS V14.00,2013-05-14 18:05:00,
2013-05-14 12:11:00,77.1,42.4,29.75,South,177,4.0,5.0,29,0.00,,SKC,0.00,VWS V14.00,2013-05-14 18:11:00,
2013-05-14 12:16:00,77.5,36.8,29.75,WSW,242,5.0,5.0,23,0.00,,SKC,0.00,VWS V14.00,2013-05-14 18:16:00,
2013-05-14 12:21:00,77.8,39.2,29.74,SW,227,1.0,5.0,25,0.00,,SKC,0.00,VWS V14.00,2013-05-14 18:21:00,
2013-05-14 12:26:00,78.2,36.3,29.74,SSW,194,0.0,5.0,22,0.00,,SKC,0.00,VWS V14.00,2013-05-14 18:26:00,
2013-05-14 12:32:00,78.5,37.7,29.73,SSW,207,2.0,5.0,23,0.00,,SKC,0.00,VWS V14.00,2013-05-14 18:32:00,
2013-05-14 12:37:00,78.9,39.1,29.73,SSW,201,5.0,5.0,24,0.00,,SKC,0.00,VWS V14.00,2013-05-14 18:37:00,
2013-05-14 12:42:00,78.9,38.0,29.73,SSW,212,5.0,5.0,23,0.00,,SKC,0.00,VWS V14.00,2013-05-14 18:42:00,
2013-05-14 12:47:00,78.8,35.6,29.73,ENE,73,0.0,7.0,21,0.00,,SKC,0.00,VWS V14.00,2013-05-14 18:47:00,
2013-05-14 12:52:00,79.1,35.8,29.72,SSW,205,1.0,7.0,21,0.00,,SKC,0.00,VWS V14.00,2013-05-14 18:52:00,
2013-05-14 12:58:00,79.2,35.9,29.72,ESE,121,1.0,7.0,21,0.00,,SKC,0.00,VWS V14.00,2013-05-14 18:58:00,
2013-05-14 13:03:00,79.5,39.6,29.72,South,175,4.0,6.0,24,0.00,,SKC,0.00,VWS V14.00,2013-05-14 19:03:00,
2013-05-14 13:08:00,79.6,36.3,29.71,SSW,200,0.0,6.0,21,0.00,,SKC,0.00,VWS V14.00,2013-05-14 19:08:00,
2013-05-14 13:13:00,79.8,36.4,29.71,ENE,71,0.0,6.0,21,0.00,,SKC,0.00,VWS V14.00,2013-05-14 19:13:00,
2013-05-14 13:19:00,80.3,36.8,29.70,ENE,61,0.0,6.0,21,0.00,,SKC,0.00,VWS V14.00,2013-05-14 19:19:00,
2013-05-14 13:24:00,80.6,35.9,29.70,SSE,166,2.0,8.0,20,0.00,,SKC,0.00,VWS V14.00,2013-05-14 19:24:00,
2013-05-14 13:29:00,80.8,39.6,29.70,SSW,192,5.0,8.0,23,0.00,,SKC,0.00,VWS V14.00,2013-05-14 19:29:00,
2013-05-14 13:34:00,81.0,39.8,29.70,WSW,237,0.0,7.0,23,0.00,,SKC,0.00,VWS V14.00,2013-05-14 19:34:00,
2013-05-14 13:39:00,81.3,37.7,29.70,SSW,210,0.0,7.0,21,0.00,,SKC,0.00,VWS V14.00,2013-05-14 19:39:00,
2013-05-14 13:45:00,80.9,36.1,29.70,NNE,13,5.0,13.0,20,0.00,,SKC,0.00,VWS V14.00,2013-05-14 19:45:00,
2013-05-14 13:50:00,80.1,37.9,29.70,West,277,2.0,13.0,22,0.00,,SKC,0.00,VWS V14.00,2013-05-14 19:50:00,
2013-05-14 13:55:00,79.1,35.8,29.70,SSW,213,0.0,13.0,21,0.00,,SKC,0.00,VWS V14.00,2013-05-14 19:55:00,
2013-05-14 14:00:00,77.6,36.9,29.71,West,271,2.0,13.0,23,0.00,,SKC,0.00,VWS V14.00,2013-05-14 20:00:00,
2013-05-14 14:06:00,76.2,38.8,29.71,NNE,17,8.0,16.0,26,0.00,,SKC,0.00,VWS V14.00,2013-05-14 20:06:00,
2013-05-14 14:11:00,74.7,43.7,29.71,NNW,342,10.0,16.0,33,0.00,,SKC,0.00,VWS V14.00,2013-05-14 20:11:00,
2013-05-14 14:16:00,74.3,45.7,29.71,NNW,329,2.0,16.0,36,0.00,,SKC,0.00,VWS V14.00,2013-05-14 20:16:00,
2013-05-14 14:21:00,74.2,43.3,29.70,NNW,348,5.0,16.0,33,0.00,,SKC,0.00,VWS V14.00,2013-05-14 20:21:00,
2013-05-14 14:27:00,74.6,41.2,29.70,West,271,0.0,16.0,30,0.00,,SKC,0.00,VWS V14.00,2013-05-14 20:27:00,
2013-05-14 14:32:00,75.1,42.4,29.70,SW,222,5.0,16.0,31,0.00,,SKC,0.00,VWS V14.00,2013-05-14 20:32:00,
2013-05-14 14:37:00,74.9,43.1,29.70,West,273,4.0,13.0,32,0.00,,SKC,0.00,VWS V14.00,2013-05-14 20:37:00,
2013-05-14 14:42:00,75.4,42.7,29.70,SW,236,1.0,13.0,31,0.00,,SKC,0.00,VWS V14.00,2013-05-14 20:42:00,
2013-05-14 14:48:00,76.0,40.6,29.70,West,269,2.0,13.0,28,0.00,,SKC,0.00,VWS V14.00,2013-05-14 20:48:00,
2013-05-14 14:53:00,76.2,41.7,29.69,West,262,0.0,13.0,29,0.00,,SKC,0.00,VWS V14.00,2013-05-14 20:53:00,
2013-05-14 14:58:00,77.0,38.5,29.69,NW,304,0.0,14.0,25,0.00,,SKC,0.00,VWS V14.00,2013-05-14 20:58:00,
2013-05-14 15:03:00,77.7,38.1,29.69,SW,236,0.0,5.0,24,0.00,,SKC,0.00,VWS V14.00,2013-05-14 21:03:00,
2013-05-14 15:09:00,78.5,38.7,29.69,NNW,331,4.0,8.0,24,0.00,,SKC,0.00,VWS V14.00,2013-05-14 21:09:00,
2013-05-14 15:14:00,78.9,35.7,29.69,West,281,4.0,11.0,21,0.00,,SKC,0.00,VWS V14.00,2013-05-14 21:14:00,
2013-05-14 15:19:00,79.2,37.1,29.68,SW,227,3.0,11.0,22,0.00,,SKC,0.00,VWS V14.00,2013-05-14 21:19:00,
2013-05-14 15:24:00,79.6,37.5,29.68,NNW,338,7.0,11.0,22,0.00,,SKC,0.00,VWS V14.00,2013-05-14 21:24:00,
2013-05-14 15:30:00,80.2,38.0,29.68,North,351,5.0,11.0,22,0.00,,SKC,0.00,VWS V14.00,2013-05-14 21:30:00,
2013-05-14 15:35:00,80.3,34.3,29.67,North,360,4.0,9.0,19,0.00,,SKC,0.00,VWS V14.00,2013-05-14 21:35:00,
2013-05-14 15:40:00,80.2,32.9,29.67,NW,304,1.0,12.0,18,0.00,,SKC,0.00,VWS V14.00,2013-05-14 21:40:00,
2013-05-14 15:45:00,80.6,34.6,29.67,North,5,5.0,13.0,19,0.00,,SKC,0.00,VWS V14.00,2013-05-14 21:45:00,
2013-05-14 15:51:00,80.6,35.9,29.67,NNW,331,0.0,13.0,20,0.00,,SKC,0.00,VWS V14.00,2013-05-14 21:51:00,
2013-05-14 15:56:00,81.4,35.2,29.66,NW,306,1.0,13.0,19,0.00,,SKC,0.00,VWS V14.00,2013-05-14 21:56:00,
2013-05-14 16:01:00,81.9,34.3,29.66,North,349,4.0,13.0,18,0.00,,SKC,0.00,VWS V14.00,2013-05-14 22:01:00,
2013-05-14 16:07:00,82.1,35.8,29.66,NNW,338,1.0,5.0,19,0.00,,SKC,0.00,VWS V14.00,2013-05-14 22:07:00,
2013-05-14 16:12:00,82.0,32.9,29.66,North,9,2.0,8.0,17,0.00,,SKC,0.00,VWS V14.00,2013-05-14 22:12:00,
2013-05-14 16:17:00,81.5,32.5,29.66,WSW,252,0.0,8.0,17,0.00,,SKC,0.00,VWS V14.00,2013-05-14 22:17:00,
2013-05-14 16:22:00,81.0,36.2,29.66,WSW,249,4.0,8.0,20,0.00,,SKC,0.00,VWS V14.00,2013-05-14 22:22:00,
2013-05-14 16:27:00,80.8,33.4,29.66,South,190,2.0,8.0,18,0.00,,SKC,0.00,VWS V14.00,2013-05-14 22:27:00,
2013-05-14 16:33:00,80.5,37.0,29.68,NNW,342,8.0,16.0,21,0.00,,SKC,0.00,VWS V14.00,2013-05-14 22:33:00,
2013-05-14 16:38:00,79.0,38.1,29.67,SW,221,18.0,21.0,23,0.00,,SKC,0.00,VWS V14.00,2013-05-14 22:38:00,
2013-05-14 16:43:00,77.1,38.6,29.67,SW,215,6.0,25.0,25,0.00,,SKC,0.00,VWS V14.00,2013-05-14 22:43:00,
2013-05-14 16:48:00,76.1,38.8,29.68,SSE,166,13.0,25.0,26,0.00,,SKC,0.00,VWS V14.00,2013-05-14 22:48:00,
2013-05-14 16:54:00,75.3,38.1,29.68,SW,221,1.0,25.0,26,0.00,,SKC,0.00,VWS V14.00,2013-05-14 22:54:00,
2013-05-14 16:59:00,74.8,38.6,29.69,South,188,8.0,25.0,27,0.00,,SKC,0.00,VWS V14.00,2013-05-14 22:59:00,
2013-05-14 17:04:00,74.3,38.2,29.70,South,181,11.0,12.0,27,0.00,,SKC,0.00,VWS V14.00,2013-05-14 23:04:00,
2013-05-14 17:10:00,74.1,39.0,29.71,SSW,193,9.0,12.0,28,0.00,,SKC,0.00,VWS V14.00,2013-05-14 23:10:00,
2013-05-14 17:15:00,74.0,37.9,29.70,SSW,196,4.0,12.0,27,0.00,,SKC,0.00,VWS V14.00,2013-05-14 23:15:00,
2013-05-14 17:20:00,73.9,38.8,29.70,SSW,192,0.0,12.0,28,0.00,,SKC,0.00,VWS V14.00,2013-05-14 23:20:00,
2013-05-14 17:25:00,74.0,37.9,29.70,South,169,4.0,12.0,27,0.00,,SKC,0.00,VWS V14.00,2013-05-14 23:25:00,
2013-05-14 17:30:00,74.0,37.9,29.70,SW,220,2.0,12.0,27,0.00,,SKC,0.00,VWS V14.00,2013-05-14 23:30:00,
2013-05-14 17:36:00,73.9,40.5,29.70,South,188,1.0,4.0,30,0.00,,SKC,0.00,VWS V14.00,2013-05-14 23:36:00,
2013-05-14 17:41:00,73.8,40.5,29.69,SSW,200,0.0,7.0,30,0.00,,SKC,0.00,VWS V14.00,2013-05-14 23:41:00,
2013-05-14 17:46:00,73.8,38.7,29.69,SSW,198,0.0,7.0,28,0.00,,SKC,0.00,VWS V14.00,2013-05-14 23:46:00,
2013-05-14 17:51:00,73.6,39.4,29.70,SSW,208,6.0,7.0,29,0.00,,SKC,0.00,VWS V14.00,2013-05-14 23:51:00,
2013-05-14 17:57:00,73.2,39.9,29.70,SSE,150,1.0,9.0,30,0.00,,SKC,0.00,VWS V14.00,2013-05-14 23:57:00,
2013-05-14 18:02:00,73.1,39.0,29.70,SSW,206,1.0,9.0,29,0.00,,SKC,0.00,VWS V14.00,2013-05-15 00:02:00,
2013-05-14 18:07:00,72.8,37.8,29.70,SW,222,2.0,12.0,28,0.00,,SKC,0.00,VWS V14.00,2013-05-15 00:07:00,
2013-05-14 18:12:00,72.7,38.6,29.70,SW,229,2.0,12.0,29,0.00,,SKC,0.00,VWS V14.00,2013-05-15 00:12:00,
2013-05-14 18:17:00,72.7,38.6,29.70,SSW,196,5.0,12.0,29,0.00,,SKC,0.00,VWS V14.00,2013-05-15 00:17:00,
2013-05-14 18:23:00,72.5,39.3,29.69,South,190,0.0,12.0,30,0.00,,SKC,0.00,VWS V14.00,2013-05-15 00:23:00,
2013-05-14 18:28:00,72.3,40.0,29.70,SSE,156,1.0,12.0,31,0.00,,SKC,0.00,VWS V14.00,2013-05-15 00:28:00,
2013-05-14 18:33:00,72.1,39.8,29.70,ENE,64,0.0,1.0,31,0.00,,SKC,0.00,VWS V14.00,2013-05-15 00:33:00,
2013-05-14 18:38:00,72.0,40.6,29.69,SW,215,0.0,8.0,32,0.00,,SKC,0.00,VWS V14.00,2013-05-15 00:38:00,
2013-05-14 18:43:00,71.9,39.7,29.69,West,280,8.0,8.0,31,0.00,,SKC,0.00,VWS V14.00,2013-05-15 00:43:00,
2013-05-14 18:49:00,71.6,40.2,29.69,SW,231,6.0,9.0,32,0.00,,SKC,0.00,VWS V14.00,2013-05-15 00:49:00,
2013-05-14 18:54:00,71.2,39.9,29.69,WSW,250,2.0,9.0,32,0.00,,SKC,0.00,VWS V14.00,2013-05-15 00:54:00,
2013-05-14 18:59:00,71.0,42.0,29.68,West,270,2.0,9.0,35,0.00,,SKC,0.00,VWS V14.00,2013-05-15 00:59:00,
2013-05-14 19:04:00,70.9,41.9,29.68,SW,223,0.0,4.0,35,0.00,,SKC,0.00,VWS V14.00,2013-05-15 01:04:00,
2013-05-14 19:09:00,70.8,40.3,29.68,NE,42,3.0,6.0,33,0.00,,SKC,0.00,VWS V14.00,2013-05-15 01:09:00,
2013-05-14 19:15:00,70.8,40.3,29.68,SSE,153,0.0,6.0,33,0.00,,SKC,0.00,VWS V14.00,2013-05-15 01:15:00,
2013-05-14 19:20:00,70.8,40.3,29.69,WSW,244,2.0,6.0,33,0.00,,SKC,0.00,VWS V14.00,2013-05-15 01:20:00,
2013-05-14 19:25:00,70.7,40.2,29.69,West,262,2.0,7.0,33,0.00,,SKC,0.00,VWS V14.00,2013-05-15 01:25:00,
2013-05-14 19:30:00,70.6,41.7,29.69,West,262,0.0,7.0,35,0.00,,SKC,0.00,VWS V14.00,2013-05-15 01:30:00,
2013-05-14 19:35:00,70.5,41.6,29.69,West,260,0.0,0.0,35,0.00,,SKC,0.00,VWS V14.00,2013-05-15 01:35:00,
2013-05-14 19:41:00,70.5,40.0,29.69,NNE,32,2.0,11.0,33,0.00,,SKC,0.00,VWS V14.00,2013-05-15 01:41:00,
2013-05-14 19:46:00,70.4,40.7,29.70,SW,215,0.0,11.0,34,0.00,,SKC,0.00,VWS V14.00,2013-05-15 01:46:00,
2013-05-14 19:51:00,70.1,40.5,29.70,WSW,237,0.0,11.0,34,0.00,,SKC,0.00,VWS V14.00,2013-05-15 01:51:00,
2013-05-14 19:56:00,69.7,40.1,29.70,SSW,197,3.0,11.0,34,0.00,,SKC,0.00,VWS V14.00,2013-05-15 01:56:00,
2013-05-14 20:02:00,69.3,40.5,29.70,SW,216,4.0,11.0,35,0.00,,SKC,0.00,VWS V14.00,2013-05-15 02:02:00,
2013-05-14 20:07:00,69.0,39.5,29.71,WSW,241,0.0,9.0,34,0.00,,SKC,0.00,VWS V14.00,2013-05-15 02:07:00,
2013-05-14 20:12:00,68.8,39.3,29.70,SSW,192,1.0,9.0,34,0.00,,SKC,0.00,VWS V14.00,2013-05-15 02:12:00,
2013-05-14 20:17:00,68.5,39.0,29.71,SW,221,0.0,9.0,34,0.00,,SKC,0.00,VWS V14.00,2013-05-15 02:17:00,
2013-05-14 20:22:00,68.2,39.5,29.72,SSW,195,1.0,9.0,35,0.00,,SKC,0.00,VWS V14.00,2013-05-15 02:22:00,
2013-05-14 20:28:00,67.9,39.3,29.72,SSW,195,0.0,9.0,35,0.00,,SKC,0.00,VWS V14.00,2013-05-15 02:28:00,
2013-05-14 20:33:00,67.8,39.2,29.72,SSW,195,0.0,0.0,35,0.00,,SKC,0.00,VWS V14.00,2013-05-15 02:33:00,
2013-05-14 20:38:00,67.6,39.0,29.72,SE,146,2.0,7.0,35,0.00,,SKC,0.00,VWS V14.00,2013-05-15 02:38:00,
2013-05-14 20:43:00,67.4,38.8,29.72,SSE,158,6.0,11.0,35,0.00,,SKC,0.00,VWS V14.00,2013-05-15 02:43:00,
2013-05-14 20:48:00,67.5,38.9,29.72,SW,225,0.0,11.0,35,0.00,,SKC,0.00,VWS V14.00,2013-05-15 02:48:00,
2013-05-14 20:54:00,67.2,38.7,29.72,SSE,160,0.0,11.0,35,0.00,,SKC,0.00,VWS V14.00,2013-05-15 02:54:00,
2013-05-14 20:59:00,67.1,38.6,29.72,NE,51,0.0,11.0,35,0.00,,SKC,0.00,VWS V14.00,2013-05-15 02:59:00,
2013-05-14 21:04:00,66.6,38.8,29.72,SW,234,0.0,3.0,36,0.00,,SKC,0.00,VWS V14.00,2013-05-15 03:04:00,
2013-05-14 21:09:00,65.7,40.1,29.73,NNE,17,3.0,5.0,39,0.00,,SKC,0.00,VWS V14.00,2013-05-15 03:09:00,
2013-05-14 21:15:00,64.5,40.3,29.73,North,355,0.0,5.0,41,0.00,,SKC,0.00,VWS V14.00,2013-05-15 03:15:00,
2013-05-14 21:20:00,63.5,40.6,29.73,North,355,0.0,5.0,43,0.00,,SKC,0.00,VWS V14.00,2013-05-15 03:20:00,
2013-05-14 21:25:00,62.6,40.4,29.74,NNE,24,3.0,5.0,44,0.00,,SKC,0.00,VWS V14.00,2013-05-15 03:25:00,
2013-05-14 21:30:00,62.2,40.0,29.74,NNE,25,0.0,5.0,44,0.00,,SKC,0.00,VWS V14.00,2013-05-15 03:30:00,
2013-05-14 21:35:00,61.8,40.8,29.74,NNE,25,0.0,2.0,46,0.00,,SKC,0.00,VWS V14.00,2013-05-15 03:35:00,
2013-05-14 21:41:00,61.3,40.9,29.75,NNE,25,0.0,2.0,47,0.00,,SKC,0.00,VWS V14.00,2013-05-15 03:41:00,
2013-05-14 21:46:00,60.6,41.4,29.74,NNE,25,0.0,2.0,49,0.00,,SKC,0.00,VWS V14.00,2013-05-15 03:46:00,
2013-05-14 21:51:00,60.0,41.8,29.75,NNE,25,0.0,2.0,51,0.00,,SKC,0.00,VWS V14.00,2013-05-15 03:51:00,
2013-05-14 21:56:00,59.5,41.4,29.75,NNE,25,0.0,2.0,51,0.00,,SKC,0.00,VWS V14.00,2013-05-15 03:56:00,
2013-05-14 22:01:00,58.8,41.2,29.75,NNE,25,0.0,2.0,52,0.00,,SKC,0.00,VWS V14.00,2013-05-15 04:01:00,
2013-05-14 22:02:00,58.8,40.7,29.75,NNE,25,0.0,2.0,51,0.00,,SKC,0.00,VWS V14.00,2013-05-15 04:02:00,
2013-05-14 22:04:00,58.5,41.0,29.75,NNE,25,0.0,2.0,52,0.00,,SKC,0.00,VWS V14.00,2013-05-15 04:04:00,
2013-05-14 22:06:00,58.3,40.3,29.75,NNE,25,1.0,3.0,51,0.00,,SKC,0.00,VWS V14.00,2013-05-15 04:06:00,
2013-05-14 22:11:00,57.9,41.4,29.75,NNE,25,0.0,3.0,54,0.00,,SKC,0.00,VWS V14.00,2013-05-15 04:11:00,
2013-05-14 22:16:00,57.4,40.9,29.75,NNE,25,0.0,3.0,54,0.00,,SKC,0.00,VWS V14.00,2013-05-15 04:16:00,
2013-05-14 22:21:00,57.0,40.5,29.75,NNE,25,0.0,3.0,54,0.00,,SKC,0.00,VWS V14.00,2013-05-15 04:21:00,
2013-05-14 22:27:00,56.6,40.2,29.75,NNE,25,0.0,3.0,54,0.00,,SKC,0.00,VWS V14.00,2013-05-15 04:27:00,
2013-05-14 22:32:00,56.3,40.8,29.75,NNE,25,0.0,3.0,56,0.00,,SKC,0.00,VWS V14.00,2013-05-15 04:32:00,
2013-05-14 22:37:00,55.8,41.3,29.75,NNE,25,0.0,1.0,58,0.00,,SKC,0.00,VWS V14.00,2013-05-15 04:37:00,
2013-05-14 22:42:00,55.5,41.9,29.75,NNE,25,0.0,2.0,60,0.00,,SKC,0.00,VWS V14.00,2013-05-15 04:42:00,
2013-05-14 22:48:00,55.1,41.0,29.75,NNE,25,0.0,2.0,59,0.00,,SKC,0.00,VWS V14.00,2013-05-15 04:48:00,
2013-05-14 22:53:00,54.9,40.4,29.75,NNE,25,0.0,2.0,58,0.00,,SKC,0.00,VWS V14.00,2013-05-15 04:53:00,
2013-05-14 22:58:00,54.8,40.3,29.75,NNE,25,0.0,2.0,58,0.00,,SKC,0.00,VWS V14.00,2013-05-15 04:58:00,
2013-05-14 23:03:00,54.7,40.2,29.75,NNE,25,0.0,0.0,58,0.00,,SKC,0.00,VWS V14.00,2013-05-15 05:03:00,
2013-05-14 23:08:00,54.7,40.7,29.76,NNE,25,0.0,2.0,59,0.00,,SKC,0.00,VWS V14.00,2013-05-15 05:08:00,
2013-05-14 23:14:00,54.6,41.0,29.76,NNE,25,0.0,2.0,60,0.00,,SKC,0.00,VWS V14.00,2013-05-15 05:14:00,
2013-05-14 23:19:00,54.6,39.7,29.76,NNE,25,0.0,2.0,57,0.00,,SKC,0.00,VWS V14.00,2013-05-15 05:19:00,
2013-05-14 23:24:00,54.5,40.0,29.76,NNE,25,0.0,2.0,58,0.00,,SKC,0.00,VWS V14.00,2013-05-15 05:24:00,
2013-05-14 23:29:00,54.4,40.0,29.76,NNE,25,0.0,2.0,58,0.00,,SKC,0.00,VWS V14.00,2013-05-15 05:29:00,
2013-05-14 23:34:00,54.4,40.4,29.76,NNE,25,0.0,1.0,59,0.00,,SKC,0.00,VWS V14.00,2013-05-15 05:34:00,
2013-05-14 23:40:00,54.4,40.0,29.76,NNE,25,0.0,3.0,58,0.00,,SKC,0.00,VWS V14.00,2013-05-15 05:40:00,
2013-05-14 23:45:00,54.5,40.9,29.76,NNE,25,2.0,3.0,60,0.00,,SKC,0.00,VWS V14.00,2013-05-15 05:45:00,
2013-05-14 23:50:00,54.7,41.1,29.76,East,101,0.0,5.0,60,0.00,,SKC,0.00,VWS V14.00,2013-05-15 05:50:00,
2013-05-14 23:55:00,54.5,40.9,29.76,East,101,0.0,5.0,60,0.00,,SKC,0.00,VWS V14.00,2013-05-15 05:55:00,